Aeroporto :
LOGIN :

Iscrizione | Disclaimer

   EN    FR    IT 

 










Sommario :    VFR   VFR Marginale   IFR   IFR Intensivo   IFR Molto Intensivo
Visibilità : 
Base nubi : 
>= 8 km
>= 3000ft
5 / 8 km
1000 / 3000 ft
1500m / 5 km
500 / 1000 ft
800 / 1500m
200 / 500 ft
< 800m
< 200 ft
Simboli :   Temporali  Nebbia  Neve Forte  Precipitazioni Forti  Vento > 20 kt
SIGMETs :   Varie  Temporali  Ghiacco  Turbolenza  Onda orograficha  Ceneri Vulcaniche






- Altitudine del aeroporto : 242 ft
- Codice IATA : DUB


EIDW - Dublin

ULTIMO METAR :
  • 230200Z 23005KT 170V280 9999 -RA SCT014 BKN022 BKN040 06/05 Q1007 NOSIG

METARs OBSOLETI :
  • 230130Z 22009KT 200V260 9000 RA SCT014 BKN022 BKN040 07/05 Q1008 NOSIG
  • 230100Z 21009KT 170V240 9000 RA FEW012 BKN015 BKN022 07/06 Q1009 NOSIG
  • 230030Z 21006KT 170V240 9000 -RA FEW012 BKN015 BKN022 07/06 Q1010 NOSIG
  • 230000Z 23008KT 190V270 9999 -RA BKN015 BKN022 06/05 Q1011 NOSIG
  • 222330Z 23010KT 190V260 9999 -RA SCT015 BKN022 BKN050 07/05 Q1012 NOSIG

TAF TAF EIDW
Valido dal 23 a 00 ore il 24 a 00 ore UTC


222300Z 2300/2324 23009KT 9999 -RA SCT012 BKN015
PROB30
TEMPO 2300/2302 5000 BKN012
BECMG 2302/2304 29007KT
TEMPO 2302/2307 4000 BKN008
BECMG 2306/2308 NSW FEW012 BKN020
PROB40
TEMPO 2307/2311 5000 -SHRA BKN008
BECMG 2309/2311 30013KT
BECMG 2315/2317 27008KT
BECMG 2318/2320 21005KT
BECMG 2322/2324 14010KT -RA SCT006 BKN012
TEMPO 2322/2324 3000 -RASN BKN006



MetMap, La meteo Aeronautica in un colpo d'occhio ! - Copyright ORBIFLY Dicembre 2007 - Disclaimer

ORBIFLY MET'MAP TEAM :

Programmazione e sviluppo : Alexandra Zaïnal
Concezione : Baudouin d'Aumeries
Aiuto per la programmazione : Marc-Olivier Méhu
Supporto tecnico e logistico : Manuel Goepfert
Aiuto per la traduzione : Arnaldo La Scala

Contatto : metmap@orbifly.com




FONTI E CREDITI :

   NOAA